Time,TemperatureF,DewpointF,PressureIn,WindDirection,WindDirectionDegrees,WindSpeedMPH,WindSpeedGustMPH,Humidity,HourlyPrecipIn,Conditions,Clouds,dailyrainin,SoftwareType,DateUTC
2013-01-11 00:03:00,34.0,34.0,-100.00,South,175,4.0,12.0,99,-99.99,,,-99.99,,2013-01-11 06:03:00,
2013-01-11 00:12:00,34.0,34.0,-100.00,South,175,4.0,12.0,99,-99.99,,,-99.99,,2013-01-11 06:12:00,
2013-01-11 00:22:00,34.0,34.0,-100.00,South,175,4.0,12.0,99,-99.99,,,-99.99,,2013-01-11 06:22:00,
2013-01-11 00:32:00,34.0,34.0,-100.00,South,175,4.0,12.0,99,-99.99,,,-99.99,,2013-01-11 06:32:00,
2013-01-11 00:42:00,34.0,34.0,-100.00,South,175,4.0,12.0,99,-99.99,,,-99.99,,2013-01-11 06:42:00,
2013-01-11 01:02:00,34.0,34.0,-100.00,South,175,4.0,12.0,99,-99.99,,,-99.99,,2013-01-11 07:02:00,
2013-01-11 01:12:00,34.0,34.0,-100.00,South,175,4.0,12.0,99,-99.99,,,-99.99,,2013-01-11 07:12:00,
2013-01-11 01:22:00,34.0,34.0,-100.00,South,175,4.0,12.0,99,-99.99,,,-99.99,,2013-01-11 07:22:00,
2013-01-11 01:32:00,34.0,34.0,-100.00,South,175,4.0,12.0,99,-99.99,,,-99.99,,2013-01-11 07:32:00,
2013-01-11 01:42:00,34.0,34.0,-100.00,South,175,4.0,12.0,99,-99.99,,,-99.99,,2013-01-11 07:42:00,
2013-01-11 03:02:00,34.0,34.0,-100.00,SSW,195,2.0,6.0,99,-99.99,,,-99.99,,2013-01-11 09:02:00,
2013-01-11 03:12:00,34.0,34.0,-100.00,SSW,195,2.0,6.0,99,-99.99,,,-99.99,,2013-01-11 09:12:00,
2013-01-11 03:22:00,34.0,34.0,-100.00,SSW,195,2.0,6.0,99,-99.99,,,-99.99,,2013-01-11 09:22:00,
2013-01-11 03:32:00,34.0,34.0,-100.00,SSW,195,2.0,6.0,99,-99.99,,,-99.99,,2013-01-11 09:32:00,
2013-01-11 03:42:00,34.0,34.0,-100.00,SSW,195,2.0,6.0,99,-99.99,,,-99.99,,2013-01-11 09:42:00,
2013-01-11 05:12:00,34.0,34.0,-100.00,SSW,200,4.0,12.0,99,-99.99,,,-99.99,,2013-01-11 11:12:00,
2013-01-11 05:22:00,34.0,34.0,-100.00,SSW,200,4.0,12.0,99,-99.99,,,-99.99,,2013-01-11 11:22:00,
2013-01-11 05:33:00,34.0,34.0,-100.00,SSW,200,4.0,12.0,99,-99.99,,,-99.99,,2013-01-11 11:33:00,
2013-01-11 05:42:00,34.0,34.0,-100.00,SSW,200,4.0,12.0,99,-99.99,,,-99.99,,2013-01-11 11:42:00,
2013-01-11 07:13:00,34.0,34.0,-100.00,SSW,195,2.0,6.0,99,-99.99,,,-99.99,,2013-01-11 13:13:00,
2013-01-11 07:22:00,34.0,34.0,-100.00,SSW,195,2.0,6.0,99,-99.99,,,-99.99,,2013-01-11 13:22:00,
2013-01-11 07:33:00,34.0,34.0,-100.00,SSW,195,2.0,6.0,99,-99.99,,,-99.99,,2013-01-11 13:33:00,
2013-01-11 07:42:00,34.0,34.0,-100.00,SSW,195,2.0,6.0,99,-99.99,,,-99.99,,2013-01-11 13:42:00,
2013-01-11 09:03:00,35.0,35.0,-100.00,South,190,3.0,7.0,99,-99.99,,,-99.99,,2013-01-11 15:03:00,
2013-01-11 09:13:00,35.0,35.0,-100.00,South,190,3.0,7.0,99,-99.99,,,-99.99,,2013-01-11 15:13:00,
2013-01-11 09:23:00,35.0,35.0,-100.00,South,190,3.0,7.0,99,-99.99,,,-99.99,,2013-01-11 15:23:00,
2013-01-11 09:33:00,35.0,35.0,-100.00,South,190,3.0,7.0,99,-99.99,,,-99.99,,2013-01-11 15:33:00,
2013-01-11 09:42:00,35.0,35.0,-100.00,South,190,3.0,7.0,99,-99.99,,,-99.99,,2013-01-11 15:42:00,
2013-01-11 10:03:00,35.0,35.0,-100.00,South,190,4.0,7.0,99,-99.99,,,-99.99,,2013-01-11 16:03:00,
2013-01-11 10:12:00,35.0,35.0,-100.00,South,190,4.0,7.0,99,-99.99,,,-99.99,,2013-01-11 16:12:00,
2013-01-11 10:22:00,35.0,35.0,-100.00,South,190,4.0,7.0,99,-99.99,,,-99.99,,2013-01-11 16:22:00,
2013-01-11 10:33:00,35.0,35.0,-100.00,South,190,4.0,7.0,99,-99.99,,,-99.99,,2013-01-11 16:33:00,
2013-01-11 10:42:00,35.0,35.0,-100.00,South,190,4.0,7.0,99,-99.99,,,-99.99,,2013-01-11 16:42:00,
2013-01-11 11:42:00,37.0,36.0,-100.00,South,185,6.0,7.0,99,-99.99,,,-99.99,,2013-01-11 17:42:00,
2013-01-11 12:03:00,37.0,36.0,-100.00,South,185,6.0,7.0,99,-99.99,,,-99.99,,2013-01-11 18:03:00,
2013-01-11 12:12:00,37.0,36.0,-100.00,South,185,6.0,7.0,99,-99.99,,,-99.99,,2013-01-11 18:12:00,
2013-01-11 12:23:00,37.0,36.0,-100.00,South,185,6.0,7.0,99,-99.99,,,-99.99,,2013-01-11 18:23:00,
2013-01-11 12:33:00,37.0,36.0,-100.00,South,185,6.0,7.0,99,-99.99,,,-99.99,,2013-01-11 18:33:00,
2013-01-11 12:40:00,37.0,37.0,-100.00,South,190,3.0,9.0,99,-99.99,,,-99.99,,2013-01-11 18:40:00,
2013-01-11 13:03:00,37.0,37.0,-100.00,South,190,3.0,9.0,99,-99.99,,,-99.99,,2013-01-11 19:03:00,
2013-01-11 13:12:00,37.0,37.0,-100.00,South,190,3.0,9.0,99,-99.99,,,-99.99,,2013-01-11 19:12:00,
2013-01-11 13:22:00,37.0,37.0,-100.00,South,190,3.0,9.0,99,-99.99,,,-99.99,,2013-01-11 19:22:00,
2013-01-11 13:32:00,37.0,37.0,-100.00,South,190,3.0,9.0,99,-99.99,,,-99.99,,2013-01-11 19:32:00,
2013-01-11 13:40:00,38.0,37.0,-100.00,South,180,3.0,6.0,99,-99.99,,,-99.99,,2013-01-11 19:40:00,
2013-01-11 14:03:00,38.0,37.0,-100.00,South,180,3.0,6.0,99,-99.99,,,-99.99,,2013-01-11 20:03:00,
2013-01-11 14:12:00,38.0,37.0,-100.00,South,180,3.0,6.0,99,-99.99,,,-99.99,,2013-01-11 20:12:00,
2013-01-11 14:22:00,38.0,37.0,-100.00,South,180,3.0,6.0,99,-99.99,,,-99.99,,2013-01-11 20:22:00,
2013-01-11 14:33:00,38.0,37.0,-100.00,South,180,3.0,6.0,99,-99.99,,,-99.99,,2013-01-11 20:33:00,
2013-01-11 15:03:00,38.0,38.0,-100.00,ENE,60,0.0,4.0,99,-99.99,,,-99.99,,2013-01-11 21:03:00,
2013-01-11 15:12:00,38.0,38.0,-100.00,ENE,60,0.0,4.0,99,-99.99,,,-99.99,,2013-01-11 21:12:00,
2013-01-11 15:23:00,38.0,38.0,-100.00,ENE,60,0.0,4.0,99,-99.99,,,-99.99,,2013-01-11 21:23:00,
2013-01-11 15:33:00,38.0,38.0,-100.00,ENE,60,0.0,4.0,99,-99.99,,,-99.99,,2013-01-11 21:33:00,
2013-01-11 15:40:00,38.0,38.0,-100.00,South,190,2.0,4.0,99,-99.99,,,-99.99,,2013-01-11 21:40:00,
2013-01-11 16:02:00,38.0,38.0,-100.00,South,190,2.0,4.0,99,-99.99,,,-99.99,,2013-01-11 22:02:00,
2013-01-11 16:12:00,38.0,38.0,-100.00,South,190,2.0,4.0,99,-99.99,,,-99.99,,2013-01-11 22:12:00,
2013-01-11 16:22:00,38.0,38.0,-100.00,South,190,2.0,4.0,99,-99.99,,,-99.99,,2013-01-11 22:22:00,
2013-01-11 16:33:00,38.0,38.0,-100.00,South,190,2.0,4.0,99,-99.99,,,-99.99,,2013-01-11 22:33:00,
2013-01-11 17:02:00,38.0,38.0,-100.00,SSE,150,1.0,4.0,99,-99.99,,,-99.99,,2013-01-11 23:02:00,
2013-01-11 17:13:00,38.0,38.0,-100.00,SSE,150,1.0,4.0,99,-99.99,,,-99.99,,2013-01-11 23:13:00,
2013-01-11 17:22:00,38.0,38.0,-100.00,SSE,150,1.0,4.0,99,-99.99,,,-99.99,,2013-01-11 23:22:00,
2013-01-11 17:32:00,38.0,38.0,-100.00,SSE,150,1.0,4.0,99,-99.99,,,-99.99,,2013-01-11 23:32:00,
2013-01-11 17:43:00,38.0,38.0,-100.00,SSE,150,1.0,4.0,99,-99.99,,,-99.99,,2013-01-11 23:43:00,
2013-01-11 18:02:00,38.0,38.0,-100.00,South,185,4.0,6.0,99,-99.99,,,-99.99,,2013-01-12 00:02:00,
2013-01-11 18:12:00,38.0,38.0,-100.00,South,185,4.0,6.0,99,-99.99,,,-99.99,,2013-01-12 00:12:00,
2013-01-11 18:23:00,38.0,38.0,-100.00,South,185,4.0,6.0,99,-99.99,,,-99.99,,2013-01-12 00:23:00,
2013-01-11 18:32:00,38.0,38.0,-100.00,South,185,4.0,6.0,99,-99.99,,,-99.99,,2013-01-12 00:32:00,
2013-01-11 18:42:00,38.0,38.0,-100.00,South,185,4.0,6.0,99,-99.99,,,-99.99,,2013-01-12 00:42:00,
2013-01-11 19:40:00,38.0,38.0,-100.00,SSW,195,3.0,9.0,99,-99.99,,,-99.99,,2013-01-12 01:40:00,
2013-01-11 20:02:00,38.0,38.0,-100.00,SSW,195,3.0,9.0,99,-99.99,,,-99.99,,2013-01-12 02:02:00,
2013-01-11 20:12:00,38.0,38.0,-100.00,SSW,195,3.0,9.0,99,-99.99,,,-99.99,,2013-01-12 02:12:00,
2013-01-11 20:22:00,38.0,38.0,-100.00,SSW,195,3.0,9.0,99,-99.99,,,-99.99,,2013-01-12 02:22:00,
2013-01-11 20:32:00,38.0,38.0,-100.00,SSW,195,3.0,9.0,99,-99.99,,,-99.99,,2013-01-12 02:32:00,
2013-01-11 20:42:00,39.0,39.0,-100.00,SSW,195,6.0,13.0,99,-99.99,,,-99.99,,2013-01-12 02:42:00,
2013-01-11 21:03:00,39.0,39.0,-100.00,SSW,195,6.0,13.0,99,-99.99,,,-99.99,,2013-01-12 03:03:00,
2013-01-11 21:12:00,39.0,39.0,-100.00,SSW,195,6.0,13.0,99,-99.99,,,-99.99,,2013-01-12 03:12:00,
2013-01-11 21:22:00,39.0,39.0,-100.00,SSW,195,6.0,13.0,99,-99.99,,,-99.99,,2013-01-12 03:22:00,
2013-01-11 21:33:00,39.0,39.0,-100.00,SSW,195,6.0,13.0,99,-99.99,,,-99.99,,2013-01-12 03:33:00,
2013-01-11 21:42:00,40.0,40.0,-100.00,SSW,195,6.0,16.0,99,-99.99,,,-99.99,,2013-01-12 03:42:00,
2013-01-11 22:02:00,40.0,40.0,-100.00,SSW,195,6.0,16.0,99,-99.99,,,-99.99,,2013-01-12 04:02:00,
2013-01-11 22:12:00,40.0,40.0,-100.00,SSW,195,6.0,16.0,99,-99.99,,,-99.99,,2013-01-12 04:12:00,
2013-01-11 22:22:00,40.0,40.0,-100.00,SSW,195,6.0,16.0,99,-99.99,,,-99.99,,2013-01-12 04:22:00,
2013-01-11 22:32:00,40.0,40.0,-100.00,SSW,195,6.0,16.0,99,-99.99,,,-99.99,,2013-01-12 04:32:00,
2013-01-11 22:40:00,41.0,40.0,-100.00,South,190,5.0,13.0,99,-99.99,,,-99.99,,2013-01-12 04:40:00,
2013-01-11 23:03:00,41.0,40.0,-100.00,South,190,5.0,13.0,99,-99.99,,,-99.99,,2013-01-12 05:03:00,
2013-01-11 23:12:00,41.0,40.0,-100.00,South,190,5.0,13.0,99,-99.99,,,-99.99,,2013-01-12 05:12:00,
2013-01-11 23:22:00,41.0,40.0,-100.00,South,190,5.0,13.0,99,-99.99,,,-99.99,,2013-01-12 05:22:00,
2013-01-11 23:32:00,41.0,40.0,-100.00,South,190,5.0,13.0,99,-99.99,,,-99.99,,2013-01-12 05:32:00,
2013-01-11 23:40:00,41.0,41.0,-100.00,South,180,9.0,18.0,99,-99.99,,,-99.99,,2013-01-12 05:40:00,